Carol M. Ott — WCY7224 — position and weather

sailwx.info

Track history (hours):
 
Tides and Currents Weather Stations Pressure Air Temp Water Temp Dewpoint Dewpoint Depression Visibility Wind Speed Wind Dir Waves Ship Positions

Carol M. Ott

Owner: BLESSEY MARINE SERVICES INC, HARAHAN, LA. More information available from US FCC via Universal Licensing System and Coast Guard Vessel Documentation Center.

Last reported at 2017-Nov-24 06:09 UTC. Time now 2017-Nov-24 07:44 UTC.
Position N 29°44' W 095°12'.

Length 23 m; draft 2.4 m.

Type: Towing. MMSI: 366934050.

Date/timePositionNaut miles runAvg speedWind from/ knotsBaromVisibWave heightAir tempDewpointWater temp
2017-Nov-24 06:09N 29°44' W 095°12'0 0.7
2017-Nov-24 05:49N 29°44' W 095°12'0 0.0
2017-Nov-24 05:29N 29°44' W 095°12'0 0.3
2017-Nov-24 05:00N 29°44' W 095°12'0 0.2
2017-Nov-24 04:30N 29°44' W 095°12'0 0.0
2017-Nov-24 04:00N 29°44' W 095°12'0 0.0
2017-Nov-24 03:30N 29°44' W 095°12'0 0.0
2017-Nov-24 03:00N 29°44' W 095°12'0 0.0
2017-Nov-24 02:28N 29°44' W 095°12'0 0.0
2017-Nov-23 15:57N 29°44' W 095°12'0 0.0
2017-Nov-23 15:26N 29°44' W 095°12'0 0.0
2017-Nov-23 14:53N 29°44' W 095°12'0 0.0
2017-Nov-23 14:18N 29°44' W 095°12'0 0.0
2017-Nov-23 13:54N 29°44' W 095°12'0 0.0
2017-Nov-23 11:03N 29°44' W 095°12'0 0.0
2017-Nov-23 10:55N 29°44' W 095°12'0 0.0
2017-Nov-23 09:15N 29°44' W 095°12'0 0.0
2017-Nov-23 08:57N 29°44' W 095°12'0 0.1
2017-Nov-23 07:44N 29°44' W 095°12'0 0.0
2017-Nov-23 05:34N 29°44' W 095°12'0 1.6
2017-Nov-23 05:28N 29°44' W 095°12'0 0.1
2017-Nov-23 04:30N 29°44' W 095°12'0 0.0
2017-Nov-23 03:37N 29°44' W 095°12'0 0.0
2017-Nov-23 03:11N 29°44' W 095°12'0 0.0
2017-Nov-23 02:55N 29°44' W 095°12'0 0.0
2017-Nov-23 01:58N 29°44' W 095°12'0 0.0
2017-Nov-23 01:26N 29°44' W 095°12'0 0.2
2017-Nov-23 00:57N 29°44' W 095°12'0 0.0
2017-Nov-23 00:23N 29°44' W 095°12'0 0.0
2017-Nov-22 23:56N 29°44' W 095°12'0 0.0
2017-Nov-22 23:28N 29°44' W 095°12'0 0.0
2017-Nov-22 23:00N 29°44' W 095°12'0 0.0
2017-Nov-22 22:27N 29°44' W 095°12'0 0.0
2017-Nov-22 21:57N 29°44' W 095°12'0 0.0
2017-Nov-22 21:28N 29°44' W 095°12'0 0.0
2017-Nov-22 20:55N 29°44' W 095°12'0 0.0
2017-Nov-22 20:29N 29°44' W 095°12'  
2017-Nov-18 13:21N 29°47' W 095°05'0 0.0
2017-Nov-18 13:00N 29°47' W 095°05'5 1.5
2017-Nov-18 09:24N 29°43' W 095°01'2 4.6
2017-Nov-18 09:00N 29°42' W 094°60'4 6.0
2017-Nov-18 08:19N 29°38' W 094°58'2 6.0
2017-Nov-18 07:59N 29°36' W 094°57'  
Track history (hours):
 
Tides and Currents Weather Stations Pressure Air Temp Water Temp Dewpoint Dewpoint Depression Visibility Wind Speed Wind Dir Waves Ship Positions

Carol M. Ott

Owner: BLESSEY MARINE SERVICES INC, HARAHAN, LA. More information available from US FCC via Universal Licensing System and Coast Guard Vessel Documentation Center.

Last reported at 2017-Nov-24 06:09 UTC. Time now 2017-Nov-24 07:44 UTC.
Position N 29°44' W 095°12'.

Length 23 m; draft 2.4 m.

Type: Towing. MMSI: 366934050.

Date/timePositionNaut miles runAvg speedWind from/ knotsBaromVisibWave heightAir tempDewpointWater temp
2017-Nov-24 06:09N 29°44' W 095°12'0 0.7
2017-Nov-24 05:49N 29°44' W 095°12'0 0.0
2017-Nov-24 05:29N 29°44' W 095°12'0 0.3
2017-Nov-24 05:00N 29°44' W 095°12'0 0.2
2017-Nov-24 04:30N 29°44' W 095°12'0 0.0
2017-Nov-24 04:00N 29°44' W 095°12'0 0.0
2017-Nov-24 03:30N 29°44' W 095°12'0 0.0
2017-Nov-24 03:00N 29°44' W 095°12'0 0.0
2017-Nov-24 02:28N 29°44' W 095°12'0 0.0
2017-Nov-23 15:57N 29°44' W 095°12'0 0.0
2017-Nov-23 15:26N 29°44' W 095°12'0 0.0
2017-Nov-23 14:53N 29°44' W 095°12'0 0.0
2017-Nov-23 14:18N 29°44' W 095°12'0 0.0
2017-Nov-23 13:54N 29°44' W 095°12'0 0.0
2017-Nov-23 11:03N 29°44' W 095°12'0 0.0
2017-Nov-23 10:55N 29°44' W 095°12'0 0.0
2017-Nov-23 09:15N 29°44' W 095°12'0 0.0
2017-Nov-23 08:57N 29°44' W 095°12'0 0.1
2017-Nov-23 07:44N 29°44' W 095°12'0 0.0
2017-Nov-23 05:34N 29°44' W 095°12'0 1.6
2017-Nov-23 05:28N 29°44' W 095°12'0 0.1
2017-Nov-23 04:30N 29°44' W 095°12'0 0.0
2017-Nov-23 03:37N 29°44' W 095°12'0 0.0
2017-Nov-23 03:11N 29°44' W 095°12'0 0.0
2017-Nov-23 02:55N 29°44' W 095°12'0 0.0
2017-Nov-23 01:58N 29°44' W 095°12'0 0.0
2017-Nov-23 01:26N 29°44' W 095°12'0 0.2
2017-Nov-23 00:57N 29°44' W 095°12'0 0.0
2017-Nov-23 00:23N 29°44' W 095°12'0 0.0
2017-Nov-22 23:56N 29°44' W 095°12'0 0.0
2017-Nov-22 23:28N 29°44' W 095°12'0 0.0
2017-Nov-22 23:00N 29°44' W 095°12'0 0.0
2017-Nov-22 22:27N 29°44' W 095°12'0 0.0
2017-Nov-22 21:57N 29°44' W 095°12'0 0.0
2017-Nov-22 21:28N 29°44' W 095°12'0 0.0
2017-Nov-22 20:55N 29°44' W 095°12'0 0.0
2017-Nov-22 20:29N 29°44' W 095°12'  
2017-Nov-18 13:21N 29°47' W 095°05'0 0.0
2017-Nov-18 13:00N 29°47' W 095°05'5 1.5
2017-Nov-18 09:24N 29°43' W 095°01'2 4.6
2017-Nov-18 09:00N 29°42' W 094°60'4 6.0
2017-Nov-18 08:19N 29°38' W 094°58'2 6.0
2017-Nov-18 07:59N 29°36' W 094°57'  

Dump ship's entire track history